Time;durP1;ratioP1;P1;durP2;ratioP2;P2;SDS_P1;SDS_P2;PMS_P1;PMS_P2;Temp;Humidity;BMP_temperature;BMP_pressure;BME280_temperature;BME280_humidity;BME280_pressure;Samples;Min_cycle;Max_cycle;Signal;HPM_P1;HPM_P2
2022/11/26 00:02:23;;;;;;;66.35;13.52;;;2.70;99.90;;;;;;5046455;28;20040;-47
2022/11/26 00:04:50;;;;;;;49.85;13.63;;;2.80;99.90;;;;;;5046648;28;20125;-47
2022/11/26 00:07:21;;;;;;;64.25;15.18;;;2.80;99.90;;;;;;5046343;28;20378;-48
2022/11/26 00:09:47;;;;;;;46.30;13.60;;;2.80;99.90;;;;;;5044989;28;20091;-48
2022/11/26 00:12:21;;;;;;;51.65;14.70;;;2.90;99.90;;;;;;5046190;28;20080;-50
2022/11/26 00:14:47;;;;;;;56.42;15.38;;;3.10;99.90;;;;;;5046002;28;20056;-48
2022/11/26 00:17:14;;;;;;;58.63;15.35;;;3.20;99.90;;;;;;5046114;28;20395;-51
2022/11/26 00:19:40;;;;;;;51.97;16.95;;;3.20;99.90;;;;;;5045946;28;20051;-48
2022/11/26 00:22:27;;;;;;;84.07;20.25;;;3.20;99.90;;;;;;5045675;28;20588;-50
2022/11/26 00:24:53;;;;;;;58.67;16.60;;;3.20;99.90;;;;;;5046239;28;20080;-47
2022/11/26 00:27:20;;;;;;;58.80;15.57;;;3.00;99.90;;;;;;5045761;28;20075;-48
2022/11/26 00:29:46;;;;;;;61.22;18.35;;;3.10;99.90;;;;;;5045403;28;20048;-48
2022/11/26 00:32:23;;;;;;;53.42;17.30;;;3.10;99.90;;;;;;5046172;28;20048;-47
2022/11/26 00:34:49;;;;;;;53.58;16.80;;;3.10;99.90;;;;;;5045805;28;20739;-48
2022/11/26 00:37:36;;;;;;;63.53;17.33;;;3.10;99.90;;;;;;5045136;28;20140;-50
2022/11/26 00:40:02;;;;;;;44.85;16.45;;;3.00;99.90;;;;;;5045332;28;20049;-48
2022/11/26 00:42:28;;;;;;;48.38;16.95;;;3.00;99.90;;;;;;5045849;28;20041;-52
2022/11/26 00:44:54;;;;;;;50.40;18.75;;;3.00;99.90;;;;;;5045278;28;20068;-52
2022/11/26 00:47:19;;;;;;;56.03;17.77;;;2.90;99.90;;;;;;5044593;28;20091;-50
2022/11/26 00:49:45;;;;;;;64.55;19.25;;;2.90;99.90;;;;;;5045144;28;20045;-50
2022/11/26 00:52:29;;;;;;;70.78;20.10;;;2.90;99.90;;;;;;5045688;28;20052;-51
2022/11/26 00:54:55;;;;;;;61.55;18.73;;;2.90;99.90;;;;;;5045964;28;20049;-51
2022/11/26 00:57:20;;;;;;;55.65;18.33;;;2.80;99.90;;;;;;5045318;28;20049;-51
2022/11/26 00:59:46;;;;;;;56.40;19.27;;;2.80;99.90;;;;;;5045679;28;20120;-51
2022/11/26 01:02:12;;;;;;;45.33;17.95;;;2.80;99.90;;;;;;5045130;28;20060;-48
2022/11/26 01:04:37;;;;;;;69.97;20.60;;;2.60;99.90;;;;;;5045938;28;20051;-51
2022/11/26 01:07:03;;;;;;;54.45;18.17;;;2.80;99.90;;;;;;5046102;28;20037;-50
2022/11/26 01:09:28;;;;;;;59.22;18.83;;;2.80;99.90;;;;;;5046071;28;20049;-51
2022/11/26 01:11:54;;;;;;;62.95;18.95;;;2.70;99.90;;;;;;5046539;28;20045;-50
2022/11/26 01:14:21;;;;;;;74.38;20.50;;;2.70;99.90;;;;;;5045834;28;20092;-50
2022/11/26 01:16:47;;;;;;;55.97;19.38;;;2.70;99.90;;;;;;5045388;28;20057;-50
2022/11/26 01:19:14;;;;;;;47.88;17.95;;;2.70;99.90;;;;;;5045512;28;20113;-51
2022/11/26 01:21:40;;;;;;;63.90;19.92;;;2.70;99.90;;;;;;5046099;28;20601;-50
2022/11/26 01:24:06;;;;;;;69.97;21.58;;;2.50;99.90;;;;;;5049546;28;20041;-49
2022/11/26 01:26:37;;;;;;;66.68;21.15;;;2.70;99.90;;;;;;5048880;28;20047;-49
2022/11/26 01:29:03;;;;;;;95.78;25.67;;;2.70;99.90;;;;;;5049135;28;20156;-48
2022/11/26 01:31:29;;;;;;;66.15;19.13;;;2.60;99.90;;;;;;5048670;28;20068;-51
2022/11/26 01:33:55;;;;;;;62.30;20.98;;;2.60;99.90;;;;;;5049319;28;20049;-49
2022/11/26 01:36:24;;;;;;;61.95;20.38;;;2.60;99.90;;;;;;5049110;28;20038;-51
2022/11/26 01:38:54;;;;;;;58.92;18.52;;;2.60;99.90;;;;;;5048923;28;20037;-46
2022/11/26 01:41:29;;;;;;;54.17;17.55;;;2.60;99.90;;;;;;5048843;28;20032;-50
2022/11/26 01:43:57;;;;;;;73.85;21.52;;;2.60;99.90;;;;;;5049438;28;20033;-47
2022/11/26 01:46:25;;;;;;;76.90;22.45;;;2.60;99.90;;;;;;5048965;28;20477;-48
2022/11/26 01:48:52;;;;;;;57.80;19.88;;;2.60;99.90;;;;;;5048498;28;20119;-51
2022/11/26 01:51:25;;;;;;;57.75;19.55;;;2.60;99.90;;;;;;5048751;28;20159;-48
2022/11/26 01:54:10;;;;;;;58.17;20.50;;;2.60;99.90;;;;;;5048516;28;20440;-48
2022/11/26 01:56:40;;;;;;;46.63;18.15;;;2.60;99.90;;;;;;5048423;28;20041;-50
2022/11/26 01:59:23;;;;;;;50.40;18.60;;;2.50;99.90;;;;;;5048647;28;20053;-51
2022/11/26 02:01:52;;;;;;;50.88;18.35;;;2.60;99.90;;;;;;5048489;28;20037;-48
2022/11/26 02:04:24;;;;;;;56.97;20.70;;;2.60;99.90;;;;;;5048768;28;20056;-47
2022/11/26 02:06:52;;;;;;;49.10;19.73;;;2.60;99.90;;;;;;5048291;28;20052;-52
2022/11/26 02:09:19;;;;;;;63.08;20.75;;;2.60;99.90;;;;;;5049115;28;20037;-50
2022/11/26 02:11:45;;;;;;;68.35;23.25;;;2.60;99.90;;;;;;5048660;28;20052;-51
2022/11/26 02:14:14;;;;;;;77.45;24.08;;;2.60;99.90;;;;;;5048489;28;20053;-49
2022/11/26 02:16:40;;;;;;;62.13;19.67;;;2.50;99.90;;;;;;5048162;28;20498;-49
2022/11/26 02:19:33;;;;;;;68.45;22.35;;;2.50;99.90;;;;;;5048609;28;20052;-51
2022/11/26 02:22:31;;;;;;;72.97;22.45;;;2.50;99.90;;;;;;5048434;28;20096;-50
2022/11/26 02:25:04;;;;;;;59.65;20.10;;;2.50;99.90;;;;;;5038078;28;20126;-49
2022/11/26 02:27:46;;;;;;;56.35;20.27;;;2.50;99.90;;;;;;5049072;28;20064;-51
2022/11/26 02:30:13;;;;;;;76.60;24.10;;;2.50;99.90;;;;;;5048954;28;20132;-51
2022/11/26 02:33:03;;;;;;;64.35;23.83;;;2.40;99.90;;;;;;5048421;28;20095;-49
2022/11/26 02:35:36;;;;;;;78.35;23.92;;;2.40;99.90;;;;;;5048354;28;20049;-50
2022/11/26 02:38:06;;;;;;;83.35;23.33;;;2.40;99.90;;;;;;5047739;28;20835;-50
2022/11/26 02:40:32;;;;;;;55.08;22.08;;;2.40;99.90;;;;;;5047892;28;20072;-51
2022/11/26 02:42:57;;;;;;;57.90;22.05;;;2.30;99.90;;;;;;5047548;28;20364;-50
2022/11/26 02:45:27;;;;;;;63.90;22.70;;;2.40;99.90;;;;;;5047668;28;20072;-48
2022/11/26 02:47:56;;;;;;;63.22;23.23;;;2.40;99.90;;;;;;5047914;28;20486;-51
2022/11/26 02:50:28;;;;;;;72.50;24.25;;;2.40;99.90;;;;;;5047812;28;20053;-48
2022/11/26 02:52:57;;;;;;;82.38;25.58;;;2.40;99.90;;;;;;5047674;28;20052;-49
2022/11/26 02:55:28;;;;;;;106.35;28.98;;;2.40;99.90;;;;;;5047959;28;20076;-47
2022/11/26 02:57:55;;;;;;;89.00;27.83;;;2.40;99.90;;;;;;5047770;28;20109;-50
2022/11/26 03:00:21;;;;;;;66.38;24.75;;;2.40;99.90;;;;;;5047676;28;20033;-49
2022/11/26 03:03:09;;;;;;;72.35;24.50;;;2.40;99.90;;;;;;5047311;28;20470;-48
2022/11/26 03:05:39;;;;;;;77.05;25.67;;;2.30;99.90;;;;;;5047539;28;20041;-48
2022/11/26 03:08:06;;;;;;;59.05;23.58;;;2.30;99.90;;;;;;5047532;28;20070;-47
2022/11/26 03:10:32;;;;;;;87.50;26.20;;;2.30;99.90;;;;;;5047451;28;20387;-48
2022/11/26 03:12:58;;;;;;;76.25;24.35;;;2.30;99.90;;;;;;5047331;28;20099;-47
2022/11/26 03:15:24;;;;;;;73.88;25.65;;;2.20;99.90;;;;;;5047153;28;20533;-51
2022/11/26 03:17:50;;;;;;;83.45;26.77;;;2.20;99.90;;;;;;5046924;28;20048;-50
2022/11/26 03:20:16;;;;;;;96.03;27.40;;;2.10;99.90;;;;;;5047512;28;20513;-48
2022/11/26 03:22:42;;;;;;;67.55;26.35;;;2.10;99.90;;;;;;5028896;28;20487;-48
2022/11/26 03:25:08;;;;;;;103.25;30.00;;;2.10;99.90;;;;;;5046978;28;20047;-48
2022/11/26 03:27:34;;;;;;;52.38;22.33;;;2.10;99.90;;;;;;5047159;28;20072;-47
2022/11/26 03:30:00;;;;;;;82.90;26.13;;;2.10;99.90;;;;;;5046649;28;20072;-48
2022/11/26 03:32:25;;;;;;;67.00;24.98;;;3.00;99.90;;;;;;5046525;28;20041;-47
2022/11/26 03:34:51;;;;;;;66.03;24.15;;;2.10;99.90;;;;;;5061525;28;20045;-48
2022/11/26 03:37:17;;;;;;;72.25;24.30;;;2.00;99.90;;;;;;5046547;28;20033;-47
2022/11/26 03:39:43;;;;;;;81.30;25.65;;;2.10;99.90;;;;;;5046640;28;20150;-49
2022/11/26 03:42:09;;;;;;;83.97;26.00;;;2.10;99.90;;;;;;5046159;28;20072;-50
2022/11/26 03:44:35;;;;;;;72.22;23.55;;;2.10;99.90;;;;;;5061698;28;20056;-48
2022/11/26 03:47:01;;;;;;;90.35;27.30;;;2.20;99.90;;;;;;5046725;28;20037;-48
2022/11/26 03:49:26;;;;;;;86.05;25.90;;;2.20;99.90;;;;;;5046734;28;20040;-48
2022/11/26 03:51:52;;;;;;;58.80;22.30;;;2.20;99.90;;;;;;5046147;28;20048;-48
2022/11/26 03:54:18;;;;;;;62.50;24.15;;;2.10;99.90;;;;;;5046275;28;20098;-50
2022/11/26 03:56:44;;;;;;;49.83;21.05;;;2.20;99.90;;;;;;5046214;28;20036;-48
2022/11/26 03:59:09;;;;;;;82.15;26.02;;;2.70;99.90;;;;;;5046455;28;20048;-47
2022/11/26 04:01:35;;;;;;;51.63;20.25;;;2.20;99.90;;;;;;5046448;28;20814;-48
2022/11/26 04:04:01;;;;;;;78.93;26.30;;;2.20;99.90;;;;;;5044643;28;20611;-47
2022/11/26 04:06:26;;;;;;;61.42;23.58;;;2.30;99.90;;;;;;5046540;28;20045;-48
2022/11/26 04:08:52;;;;;;;54.15;22.02;;;2.30;99.90;;;;;;5046725;28;20079;-50
2022/11/26 04:11:18;;;;;;;69.95;25.50;;;2.30;99.90;;;;;;5045318;28;20075;-50
2022/11/26 04:13:43;;;;;;;57.45;22.92;;;2.30;99.90;;;;;;5046468;28;20550;-50
2022/11/26 04:16:09;;;;;;;71.22;24.02;;;2.30;99.90;;;;;;5046295;28;20475;-48
2022/11/26 04:18:35;;;;;;;70.43;24.45;;;2.30;99.90;;;;;;5046448;28;20044;-47
2022/11/26 04:21:00;;;;;;;59.78;23.33;;;2.30;99.90;;;;;;5046229;28;20037;-49
2022/11/26 04:23:26;;;;;;;67.07;24.63;;;2.40;99.90;;;;;;5046421;28;20147;-50
2022/11/26 04:25:52;;;;;;;70.13;25.25;;;2.40;99.90;;;;;;5044865;28;20033;-48
2022/11/26 04:28:17;;;;;;;66.95;25.13;;;2.40;99.90;;;;;;5046292;28;20049;-46
2022/11/26 04:30:43;;;;;;;69.97;25.38;;;2.40;99.90;;;;;;5046415;28;20045;-48
2022/11/26 04:33:09;;;;;;;73.47;25.95;;;2.40;99.90;;;;;;5046095;28;20080;-49
2022/11/26 04:35:35;;;;;;;61.42;24.70;;;2.50;99.90;;;;;;5046785;28;20067;-48
2022/11/26 04:38:01;;;;;;;73.55;26.00;;;2.50;99.90;;;;;;5046497;28;20390;-48
2022/11/26 04:40:26;;;;;;;88.80;29.67;;;2.50;99.90;;;;;;5046813;28;20128;-47
2022/11/26 04:42:52;;;;;;;99.90;31.77;;;2.50;99.90;;;;;;5046663;28;20380;-50
2022/11/26 04:45:18;;;;;;;74.55;27.83;;;2.50;99.90;;;;;;5046601;28;20048;-47
2022/11/26 04:47:43;;;;;;;102.50;30.75;;;2.30;99.90;;;;;;5046383;28;20045;-47
2022/11/26 04:50:10;;;;;;;66.20;27.13;;;2.50;99.90;;;;;;5046061;28;20071;-50
2022/11/26 04:52:35;;;;;;;132.20;35.28;;;2.50;99.90;;;;;;5046319;28;20076;-48
2022/11/26 04:55:01;;;;;;;88.70;29.15;;;2.50;99.90;;;;;;5045629;28;20068;-48
2022/11/26 04:57:26;;;;;;;94.05;29.05;;;2.60;99.90;;;;;;5048192;28;20128;-49
2022/11/26 04:59:52;;;;;;;81.32;28.92;;;2.60;99.90;;;;;;5050049;28;20059;-49
2022/11/26 05:02:18;;;;;;;75.40;28.60;;;2.60;99.90;;;;;;5049672;28;20041;-46
2022/11/26 05:04:43;;;;;;;72.35;27.75;;;2.60;99.90;;;;;;5049826;28;20098;-49
2022/11/26 05:07:09;;;;;;;89.55;30.40;;;2.60;99.90;;;;;;5049791;28;20056;-47
2022/11/26 05:09:35;;;;;;;95.25;32.80;;;2.60;99.90;;;;;;5064868;28;20045;-47
2022/11/26 05:12:01;;;;;;;127.55;34.17;;;2.60;99.90;;;;;;5049464;28;20102;-49
2022/11/26 05:14:26;;;;;;;69.93;29.38;;;2.50;99.90;;;;;;5049593;28;20093;-48
2022/11/26 05:16:52;;;;;;;80.97;30.35;;;2.50;99.90;;;;;;5049985;28;20135;-47
2022/11/26 05:19:18;;;;;;;104.10;32.42;;;2.50;99.90;;;;;;5049929;28;20041;-48
2022/11/26 05:21:43;;;;;;;106.10;33.90;;;2.50;99.90;;;;;;5049979;28;20086;-47
2022/11/26 05:24:09;;;;;;;103.53;34.58;;;2.50;99.90;;;;;;5049720;28;20041;-51
2022/11/26 05:26:35;;;;;;;80.15;31.13;;;2.50;99.90;;;;;;5049845;28;20040;-49
2022/11/26 05:29:00;;;;;;;148.40;39.33;;;2.50;99.90;;;;;;5049935;28;20044;-48
2022/11/26 05:31:27;;;;;;;106.32;34.97;;;2.50;99.90;;;;;;5049702;28;20136;-50
2022/11/26 05:33:53;;;;;;;74.90;32.08;;;2.50;99.90;;;;;;5048057;28;20052;-47
2022/11/26 05:36:19;;;;;;;73.60;32.83;;;2.50;99.90;;;;;;5049810;28;20041;-47
2022/11/26 05:38:44;;;;;;;104.50;36.22;;;2.50;99.90;;;;;;5049547;28;20052;-48
2022/11/26 05:41:10;;;;;;;100.70;36.17;;;3.20;99.90;;;;;;5049232;28;20047;-48
2022/11/26 05:43:36;;;;;;;98.13;36.20;;;2.50;99.90;;;;;;5049774;28;20135;-46
2022/11/26 05:46:06;;;;;;;107.22;37.40;;;2.50;99.90;;;;;;5049073;28;20083;-48
2022/11/26 05:48:31;;;;;;;123.32;39.42;;;2.50;99.90;;;;;;5049364;28;20037;-50
2022/11/26 05:50:58;;;;;;;134.68;40.15;;;2.40;99.90;;;;;;5049472;28;20056;-49
2022/11/26 05:53:25;;;;;;;164.10;42.88;;;2.50;99.90;;;;;;5049021;28;20048;-47
2022/11/26 05:55:50;;;;;;;158.55;43.72;;;2.30;99.90;;;;;;5049147;28;20041;-50
2022/11/26 05:58:16;;;;;;;155.70;42.70;;;2.60;99.90;;;;;;5064226;28;20048;-51
2022/11/26 06:00:42;;;;;;;167.02;43.63;;;2.60;99.90;;;;;;5048656;28;20052;-48
2022/11/26 06:03:07;;;;;;;149.98;42.60;;;2.70;99.90;;;;;;5047856;28;20037;-48
2022/11/26 06:05:33;;;;;;;185.25;46.53;;;2.80;99.90;;;;;;5048089;28;20128;-47
2022/11/26 06:07:59;;;;;;;212.82;47.67;;;2.80;99.90;;;;;;5048298;28;20047;-52
2022/11/26 06:10:25;;;;;;;189.05;46.50;;;2.90;99.90;;;;;;5048258;28;20052;-48
2022/11/26 06:12:50;;;;;;;180.65;44.33;;;2.90;99.90;;;;;;5048447;28;20120;-51
2022/11/26 06:15:16;;;;;;;173.00;44.65;;;2.90;99.90;;;;;;5047031;28;20064;-50
2022/11/26 06:17:42;;;;;;;166.95;43.55;;;2.90;99.90;;;;;;5047471;28;20060;-49
2022/11/26 06:20:08;;;;;;;166.80;43.17;;;2.90;99.90;;;;;;5047182;28;20079;-51
2022/11/26 06:22:38;;;;;;;160.02;42.45;;;2.90;99.90;;;;;;5047290;28;20052;-50
2022/11/26 06:25:07;;;;;;;182.07;44.72;;;2.90;99.90;;;;;;5047485;28;20037;-51
2022/11/26 06:27:34;;;;;;;154.60;42.85;;;2.60;99.90;;;;;;5047439;28;20049;-51
2022/11/26 06:30:00;;;;;;;143.15;41.70;;;3.00;99.90;;;;;;5047408;28;20044;-50
2022/11/26 06:32:27;;;;;;;194.88;47.47;;;2.90;99.90;;;;;;5047418;28;20051;-51
2022/11/26 06:34:53;;;;;;;182.63;45.75;;;3.00;99.90;;;;;;5047145;28;20059;-50
2022/11/26 06:37:18;;;;;;;183.15;45.72;;;3.00;99.90;;;;;;5062613;28;20052;-47
2022/11/26 06:39:44;;;;;;;212.57;47.67;;;3.00;99.90;;;;;;5047335;28;20048;-47
2022/11/26 06:42:10;;;;;;;182.55;45.33;;;3.00;99.90;;;;;;5047298;28;20040;-47
2022/11/26 06:44:35;;;;;;;200.00;46.45;;;3.00;99.90;;;;;;5047261;28;20140;-48
2022/11/26 06:47:01;;;;;;;201.70;48.33;;;3.10;99.90;;;;;;5047047;28;20043;-50
2022/11/26 06:49:27;;;;;;;168.88;41.50;;;3.10;99.90;;;;;;5047104;28;20116;-48
2022/11/26 06:51:53;;;;;;;217.32;47.13;;;3.10;99.90;;;;;;5047046;28;20060;-47
2022/11/26 06:54:19;;;;;;;179.23;43.83;;;3.10;99.90;;;;;;5045568;28;20037;-47
2022/11/26 06:56:45;;;;;;;207.32;45.35;;;3.10;99.90;;;;;;5046687;28;20386;-49
2022/11/26 06:59:11;;;;;;;199.70;45.22;;;3.90;99.90;;;;;;5046972;28;20044;-48
2022/11/26 07:01:37;;;;;;;170.85;42.78;;;3.20;99.90;;;;;;5046802;28;20048;-48
2022/11/26 07:04:04;;;;;;;169.88;41.28;;;3.20;99.90;;;;;;5046671;28;20048;-51
2022/11/26 07:06:31;;;;;;;195.55;43.25;;;3.20;99.90;;;;;;5046333;28;20045;-49
2022/11/26 07:09:00;;;;;;;195.98;44.67;;;3.20;99.90;;;;;;5046856;28;20049;-48
2022/11/26 07:11:26;;;;;;;190.60;43.55;;;3.30;99.90;;;;;;5046628;28;20051;-51
2022/11/26 07:13:52;;;;;;;171.50;42.22;;;3.30;99.90;;;;;;5047011;28;20052;-50
2022/11/26 07:16:18;;;;;;;154.77;38.73;;;3.50;99.90;;;;;;5009268;28;1091428;-48
2022/11/26 07:18:49;;;;;;;187.40;41.83;;;3.30;99.90;;;;;;5047443;28;20283;-47
2022/11/26 07:21:15;;;;;;;199.70;43.50;;;3.40;99.90;;;;;;5047241;28;20048;-46
2022/11/26 07:23:41;;;;;;;231.57;47.63;;;3.40;99.90;;;;;;5047457;28;20499;-48
2022/11/26 07:26:08;;;;;;;192.55;42.25;;;3.40;99.90;;;;;;5047265;28;20056;-50
2022/11/26 07:28:34;;;;;;;219.27;46.72;;;3.50;99.90;;;;;;5047035;28;20033;-47
2022/11/26 07:31:02;;;;;;;222.27;45.22;;;3.50;99.90;;;;;;5047011;28;20045;-49
2022/11/26 07:33:28;;;;;;;238.73;46.90;;;3.50;99.90;;;;;;5047321;28;20451;-49
2022/11/26 07:35:54;;;;;;;194.07;44.67;;;3.50;99.90;;;;;;5047338;28;20040;-47
2022/11/26 07:38:20;;;;;;;206.52;47.20;;;3.50;99.90;;;;;;5047066;28;20052;-47
2022/11/26 07:40:45;;;;;;;220.45;45.55;;;3.60;99.90;;;;;;5046605;28;20049;-49
2022/11/26 07:43:11;;;;;;;178.18;42.60;;;3.60;99.90;;;;;;5047227;28;20478;-50
2022/11/26 07:45:36;;;;;;;176.77;43.05;;;3.60;99.90;;;;;;5047112;28;20506;-47
2022/11/26 07:48:03;;;;;;;187.68;43.38;;;3.60;99.90;;;;;;5047461;28;20053;-50
2022/11/26 07:50:29;;;;;;;203.82;45.38;;;3.60;99.90;;;;;;5046354;28;20505;-50
2022/11/26 07:52:55;;;;;;;213.50;46.00;;;3.70;99.90;;;;;;5062291;28;20056;-47
2022/11/26 07:55:21;;;;;;;222.50;45.65;;;3.70;99.90;;;;;;5046840;28;20049;-46
2022/11/26 07:57:46;;;;;;;177.57;43.22;;;3.80;99.90;;;;;;5046276;28;20044;-51
2022/11/26 08:00:13;;;;;;;187.68;44.13;;;3.80;99.90;;;;;;5046652;28;20044;-49
2022/11/26 08:02:39;;;;;;;162.52;41.55;;;3.80;99.90;;;;;;5045739;28;20143;-48
2022/11/26 08:05:05;;;;;;;195.80;46.42;;;3.90;99.90;;;;;;5046259;28;20111;-47
2022/11/26 08:07:31;;;;;;;174.63;43.40;;;3.90;99.90;;;;;;5046724;28;20049;-47
2022/11/26 08:09:56;;;;;;;157.00;44.25;;;3.90;99.90;;;;;;5046418;28;20040;-47
2022/11/26 08:12:22;;;;;;;144.00;40.40;;;4.00;99.90;;;;;;5046417;28;20056;-50
2022/11/26 08:14:48;;;;;;;165.32;44.35;;;4.00;99.90;;;;;;5044268;28;20096;-49
2022/11/26 08:17:13;;;;;;;181.98;45.10;;;4.10;99.90;;;;;;5045898;28;20056;-48
2022/11/26 08:19:39;;;;;;;177.02;45.00;;;4.10;99.90;;;;;;5046219;28;20045;-47
2022/11/26 08:22:04;;;;;;;153.60;41.80;;;4.20;99.90;;;;;;5045687;28;20471;-46
2022/11/26 08:24:30;;;;;;;214.63;47.33;;;4.20;99.90;;;;;;5045607;28;20118;-46
2022/11/26 08:26:58;;;;;;;148.10;42.95;;;4.30;99.90;;;;;;5045944;28;20048;-50
2022/11/26 08:29:24;;;;;;;137.18;42.22;;;4.40;99.90;;;;;;5045890;28;20088;-49
2022/11/26 08:31:50;;;;;;;178.30;46.63;;;4.50;99.90;;;;;;5045040;28;20420;-51
2022/11/26 08:34:17;;;;;;;195.60;47.03;;;4.50;99.90;;;;;;5045057;28;20044;-48
2022/11/26 08:36:44;;;;;;;154.15;44.28;;;4.60;99.90;;;;;;5044889;28;20399;-50
2022/11/26 08:39:18;;;;;;;144.93;44.63;;;4.60;99.90;;;;;;5046083;28;20044;-50
2022/11/26 08:41:45;;;;;;;150.55;43.38;;;4.60;99.90;;;;;;5046274;28;20033;-52
2022/11/26 08:44:10;;;;;;;151.80;42.25;;;4.70;99.90;;;;;;5046543;28;20056;-51
2022/11/26 08:46:38;;;;;;;138.68;41.15;;;4.70;99.90;;;;;;5044136;28;20508;-51
2022/11/26 08:49:04;;;;;;;168.25;44.47;;;4.50;99.90;;;;;;5045417;28;20152;-50
2022/11/26 08:51:29;;;;;;;120.63;41.40;;;4.90;99.90;;;;;;5044333;28;20473;-50
2022/11/26 08:53:55;;;;;;;189.27;45.17;;;5.80;99.90;;;;;;5045472;28;20106;-49
2022/11/26 08:56:21;;;;;;;136.80;40.85;;;5.00;99.90;;;;;;5045473;28;20143;-49
2022/11/26 08:58:47;;;;;;;147.48;40.95;;;5.10;99.90;;;;;;5045486;28;20049;-48
2022/11/26 09:01:21;;;;;;;124.18;40.10;;;5.20;99.90;;;;;;5045356;28;20095;-48
2022/11/26 09:03:48;;;;;;;135.60;40.17;;;5.20;99.90;;;;;;5044290;28;20053;-50
2022/11/26 09:06:14;;;;;;;113.18;37.67;;;5.30;99.90;;;;;;5045512;28;20371;-49
2022/11/26 09:11:25;;;;;;;138.43;42.17;;;5.30;99.90;;;;;;5046236;28;20800;-50
2022/11/26 09:13:52;;;;;;;129.52;39.97;;;7.50;99.90;;;;;;5045464;28;20048;-51
2022/11/26 09:16:18;;;;;;;104.53;38.65;;;5.40;99.90;;;;;;5045579;28;20061;-50
2022/11/26 09:18:44;;;;;;;162.95;44.53;;;5.40;99.90;;;;;;5045622;28;20048;-52
2022/11/26 09:21:10;;;;;;;107.88;36.13;;;5.50;99.90;;;;;;5045637;28;20893;-50
2022/11/26 09:23:36;;;;;;;99.55;35.90;;;5.30;99.90;;;;;;5045592;28;20041;-48
2022/11/26 09:26:01;;;;;;;104.43;36.78;;;5.50;99.90;;;;;;5045643;28;20047;-47
2022/11/26 09:28:27;;;;;;;94.45;33.72;;;5.40;99.90;;;;;;5045711;28;20043;-51
2022/11/26 09:30:57;;;;;;;105.95;37.60;;;5.70;99.90;;;;;;5045444;28;20376;-50
2022/11/26 09:33:23;;;;;;;122.60;38.10;;;5.70;99.90;;;;;;5045530;28;20075;-52
2022/11/26 09:35:49;;;;;;;95.07;36.42;;;5.70;99.90;;;;;;5045599;28;20507;-52
2022/11/26 09:38:14;;;;;;;99.97;36.03;;;5.60;99.90;;;;;;5046099;28;20474;-50
2022/11/26 09:40:48;;;;;;;118.57;38.55;;;5.90;99.90;;;;;;5046008;28;20474;-47
2022/11/26 09:43:37;;;;;;;145.02;42.58;;;5.90;99.90;;;;;;5047523;28;20380;-52
2022/11/26 09:46:04;;;;;;;96.70;36.88;;;6.00;99.90;;;;;;5045657;28;20049;-52
2022/11/26 09:48:32;;;;;;;140.00;42.97;;;6.10;99.90;;;;;;5049097;28;20056;-47
2022/11/26 09:51:11;;;;;;;126.53;42.25;;;7.00;99.90;;;;;;5048906;28;20080;-50
2022/11/26 09:53:41;;;;;;;120.65;41.40;;;7.40;99.90;;;;;;5048796;28;20048;-50
2022/11/26 09:56:15;;;;;;;124.35;41.45;;;6.20;99.90;;;;;;5048409;28;20056;-57
2022/11/26 09:58:57;;;;;;;167.95;49.13;;;6.50;99.90;;;;;;5053443;28;20076;-48
2022/11/26 10:01:23;;;;;;;133.02;43.08;;;7.40;99.90;;;;;;5063284;28;20052;-57
2022/11/26 10:03:50;;;;;;;115.05;43.65;;;7.30;99.90;;;;;;5048401;28;20144;-57
2022/11/26 10:06:37;;;;;;;153.35;46.95;;;6.30;99.90;;;;;;5048598;28;20039;-59
2022/11/26 10:09:06;;;;;;;126.15;42.58;;;6.40;99.90;;;;;;5048653;28;20066;-57
2022/11/26 10:11:56;;;;;;;115.65;43.53;;;6.50;99.90;;;;;;5048573;28;20052;-57
2022/11/26 10:14:22;;;;;;;164.57;47.97;;;6.60;99.90;;;;;;5031610;28;20051;-57
2022/11/26 10:17:18;;;;;;;120.15;42.55;;;6.30;99.90;;;;;;5048558;28;20040;-57
2022/11/26 10:19:56;;;;;;;132.20;45.30;;;6.60;99.90;;;;;;5030921;28;20098;-57
2022/11/26 10:22:53;;;;;;;193.15;51.95;;;6.70;99.90;;;;;;5030174;28;20079;-59
2022/11/26 10:25:22;;;;;;;135.32;46.70;;;6.70;99.90;;;;;;5063626;28;20512;-57
2022/11/26 10:27:49;;;;;;;141.27;46.25;;;6.80;99.90;;;;;;5048814;28;20091;-48
2022/11/26 10:30:21;;;;;;;160.00;50.03;;;7.70;99.90;;;;;;5049353;28;20044;-55
2022/11/26 10:32:48;;;;;;;158.52;48.75;;;6.80;99.90;;;;;;5068526;28;20547;-56
2022/11/26 10:35:16;;;;;;;147.98;48.58;;;6.80;99.90;;;;;;5068268;28;20133;-55
2022/11/26 10:37:42;;;;;;;157.57;49.60;;;6.90;99.90;;;;;;5068443;28;20044;-55
2022/11/26 10:40:19;;;;;;;157.68;50.10;;;6.70;99.90;;;;;;5068156;28;20478;-56
2022/11/26 10:43:05;;;;;;;160.25;49.30;;;7.00;99.90;;;;;;5068759;28;20044;-55
2022/11/26 10:45:46;;;;;;;145.98;47.92;;;7.00;99.90;;;;;;5068719;28;20078;-55
2022/11/26 10:48:28;;;;;;;132.97;47.80;;;6.60;99.90;;;;;;5050121;28;20176;-56
2022/11/26 10:51:03;;;;;;;251.93;61.28;;;7.20;99.90;;;;;;5067832;28;20095;-55
2022/11/26 10:53:45;;;;;;;156.45;51.78;;;7.20;99.90;;;;;;5068021;28;20045;-56
2022/11/26 10:56:17;;;;;;;149.82;50.10;;;7.20;99.90;;;;;;5067343;28;20097;-56
2022/11/26 10:58:44;;;;;;;163.13;50.90;;;7.20;99.90;;;;;;5067644;28;20056;-56
2022/11/26 11:01:13;;;;;;;167.70;51.13;;;7.30;99.90;;;;;;5067673;28;20044;-56
2022/11/26 11:03:56;;;;;;;144.32;48.03;;;7.30;99.90;;;;;;5067788;28;20708;-56
2022/11/26 11:06:41;;;;;;;146.02;47.33;;;7.30;99.90;;;;;;5068005;28;20406;-56
2022/11/26 11:09:36;;;;;;;158.80;48.80;;;7.40;99.90;;;;;;5067463;28;20044;-56
2022/11/26 11:12:16;;;;;;;183.45;52.40;;;7.40;99.90;;;;;;5028448;28;20497;-56
2022/11/26 11:14:44;;;;;;;152.63;48.60;;;7.40;99.90;;;;;;5067407;28;20060;-56
2022/11/26 11:17:30;;;;;;;156.35;49.13;;;7.80;99.90;;;;;;5067355;28;20052;-55
2022/11/26 11:19:58;;;;;;;199.23;54.88;;;7.50;99.90;;;;;;5067974;28;20044;-55
2022/11/26 11:22:25;;;;;;;126.43;46.08;;;7.50;99.90;;;;;;5067827;28;20566;-55
2022/11/26 11:24:59;;;;;;;200.32;52.35;;;7.60;99.90;;;;;;5068160;28;20055;-56
2022/11/26 11:27:31;;;;;;;153.95;49.72;;;7.60;99.90;;;;;;5051112;28;20048;-55
2022/11/26 11:30:01;;;;;;;145.45;47.30;;;7.60;99.90;;;;;;5049856;28;20063;-55
2022/11/26 11:32:38;;;;;;;153.68;47.38;;;7.90;99.90;;;;;;5067307;28;20731;-56
2022/11/26 11:35:19;;;;;;;144.63;46.70;;;8.20;99.90;;;;;;5048957;28;20075;-56
2022/11/26 11:37:53;;;;;;;138.70;46.80;;;8.40;99.90;;;;;;5067172;28;20063;-56
2022/11/26 11:40:26;;;;;;;185.20;50.53;;;7.70;99.90;;;;;;5066816;28;20078;-55
2022/11/26 11:43:02;;;;;;;152.93;48.53;;;7.70;99.90;;;;;;5067417;28;20127;-55
2022/11/26 11:45:33;;;;;;;195.32;52.42;;;7.80;99.90;;;;;;5067153;28;20074;-56
2022/11/26 11:48:23;;;;;;;147.32;46.10;;;7.80;99.90;;;;;;5067006;28;20050;-55
2022/11/26 11:50:58;;;;;;;128.98;44.75;;;7.90;99.90;;;;;;5066522;28;20141;-55
2022/11/26 11:53:29;;;;;;;148.45;48.25;;;7.90;99.90;;;;;;5066647;28;20040;-55
2022/11/26 11:56:23;;;;;;;119.65;43.53;;;7.90;99.90;;;;;;5031880;28;20044;-55
2022/11/26 11:59:16;;;;;;;125.75;45.40;;;7.90;99.90;;;;;;5066532;28;20040;-56
2022/11/26 12:02:16;;;;;;;140.25;44.53;;;7.90;99.90;;;;;;5066173;28;20044;-55
2022/11/26 12:04:45;;;;;;;121.03;42.63;;;7.90;99.90;;;;;;5066457;28;20078;-56
2022/11/26 12:07:37;;;;;;;129.10;41.95;;;8.20;99.90;;;;;;5065928;28;20036;-56
2022/11/26 12:10:19;;;;;;;118.82;41.25;;;7.90;99.90;;;;;;5066478;28;20101;-56
2022/11/26 12:12:51;;;;;;;104.85;39.40;;;7.90;99.90;;;;;;5065865;28;20110;-55
2022/11/26 12:15:28;;;;;;;116.50;39.97;;;7.90;99.90;;;;;;5065517;28;20704;-55
2022/11/26 12:18:21;;;;;;;129.50;41.35;;;7.90;99.90;;;;;;5048047;28;20414;-55
2022/11/26 12:20:52;;;;;;;102.15;42.65;;;7.90;99.90;;;;;;5066600;28;20119;-55
2022/11/26 12:23:24;;;;;;;110.47;40.05;;;7.90;99.90;;;;;;5066055;28;20079;-56
2022/11/26 12:25:55;;;;;;;131.63;42.50;;;7.90;99.90;;;;;;5065972;28;20047;-56
2022/11/26 12:28:28;;;;;;;97.97;39.40;;;7.90;99.90;;;;;;5065286;28;20710;-56
2022/11/26 12:31:06;;;;;;;145.93;41.53;;;8.20;99.90;;;;;;5047771;28;20805;-57
2022/11/26 12:33:42;;;;;;;121.30;40.47;;;7.90;99.90;;;;;;5047091;28;20101;-56
2022/11/26 12:36:55;;;;;;;110.68;40.65;;;8.70;99.90;;;;;;5047970;28;20051;-56
2022/11/26 12:39:58;;;;;;;100.88;38.08;;;7.90;99.90;;;;;;5065567;28;20047;-56
2022/11/26 12:42:32;;;;;;;112.95;38.60;;;7.90;99.90;;;;;;5065652;28;20052;-56
2022/11/26 12:45:15;;;;;;;118.22;42.03;;;8.00;99.90;;;;;;5047890;28;20113;-57
2022/11/26 12:47:49;;;;;;;112.70;41.00;;;8.00;99.90;;;;;;5065248;28;20055;-56